MSC Bremen — A8LK7 — position and weather

sailwx.info

Track history (hours):
 
Tides and Currents Weather Stations Pressure Air Temp Water Temp Dewpoint Dewpoint Depression Visibility Wind Speed Wind Dir Waves Ship Positions

MSC Bremen

Last reported at 2014-Dec-16 22:33 UTC. Time now 2014-Dec-18 05:50 UTC.
Position S 24°07' W 046°23'.

Length 294 m; ; draft 13.7 m.

Type: Ship (hazmat cat A). MMSI: 636091270.

Date/timePositionNaut miles runAvg speedWind from/ knotsBaromVisibWave heightAir tempDewpointWater temp
2014-Dec-16 22:33S 24°07' W 046°23'10 9.9
2014-Dec-16 21:33S 23°59' W 046°17'5 1.1
2014-Dec-16 17:07S 23°55' W 046°21'0 0.0
2014-Dec-16 16:13S 23°55' W 046°21'0 0.0
2014-Dec-16 15:31S 23°55' W 046°21'0 0.0
2014-Dec-16 12:19S 23°55' W 046°21'0 0.0
2014-Dec-16 09:25S 23°55' W 046°21'0 0.0
2014-Dec-16 07:19S 23°55' W 046°21'0 0.0
2014-Dec-16 06:31S 23°55' W 046°21'0 0.0
2014-Dec-16 02:32S 23°55' W 046°21'0 0.1
2014-Dec-15 23:16S 23°55' W 046°21'4 5.8
2014-Dec-15 22:33S 23°58' W 046°18'7 7.4
2014-Dec-15 21:33S 24°04' W 046°22'9 3.0
2014-Dec-15 18:33S 24°12' W 046°27'29914.9
2014-Dec-14 22:30S 22°45' W 041°15'  
2014-Dec-11 06:00S 00°30' W 038°36'9318.7 090 / 171010.010.8 25.023.5
2014-Dec-11 01:00N 00°36' W 039°42'   130 / 161010.010.8 1.530.024.3
Track history (hours):
 
Tides and Currents Weather Stations Pressure Air Temp Water Temp Dewpoint Dewpoint Depression Visibility Wind Speed Wind Dir Waves Ship Positions

MSC Bremen

Last reported at 2014-Dec-16 22:33 UTC. Time now 2014-Dec-18 05:50 UTC.
Position S 24°07' W 046°23'.

Length 294 m; ; draft 13.7 m.

Type: Ship (hazmat cat A). MMSI: 636091270.

Date/timePositionNaut miles runAvg speedWind from/ knotsBaromVisibWave heightAir tempDewpointWater temp
2014-Dec-16 22:33S 24°07' W 046°23'10 9.9
2014-Dec-16 21:33S 23°59' W 046°17'5 1.1
2014-Dec-16 17:07S 23°55' W 046°21'0 0.0
2014-Dec-16 16:13S 23°55' W 046°21'0 0.0
2014-Dec-16 15:31S 23°55' W 046°21'0 0.0
2014-Dec-16 12:19S 23°55' W 046°21'0 0.0
2014-Dec-16 09:25S 23°55' W 046°21'0 0.0
2014-Dec-16 07:19S 23°55' W 046°21'0 0.0
2014-Dec-16 06:31S 23°55' W 046°21'0 0.0
2014-Dec-16 02:32S 23°55' W 046°21'0 0.1
2014-Dec-15 23:16S 23°55' W 046°21'4 5.8
2014-Dec-15 22:33S 23°58' W 046°18'7 7.4
2014-Dec-15 21:33S 24°04' W 046°22'9 3.0
2014-Dec-15 18:33S 24°12' W 046°27'29914.9
2014-Dec-14 22:30S 22°45' W 041°15'  
2014-Dec-11 06:00S 00°30' W 038°36'9318.7 090 / 171010.010.8 25.023.5
2014-Dec-11 01:00N 00°36' W 039°42'   130 / 161010.010.8 1.530.024.3

Dump ship's entire track history